createdAt,value
2022-08-09T00:00:00.264Z,22.30
2022-08-09T00:02:28.811Z,22.20
2022-08-09T00:05:03.229Z,22.20
2022-08-09T00:07:45.257Z,22.10
2022-08-09T00:10:21.196Z,22.00
2022-08-09T00:12:51.506Z,22.00
2022-08-09T00:15:19.520Z,22.10
2022-08-09T00:18:05.698Z,21.90
2022-08-09T00:20:35.022Z,21.80
2022-08-09T00:23:53.942Z,21.90
2022-08-09T00:25:51.786Z,21.90
2022-08-09T00:28:19.423Z,21.80
2022-08-09T00:30:49.542Z,21.70
2022-08-09T00:33:16.906Z,21.90
2022-08-09T00:35:46.209Z,22.00
2022-08-09T00:38:13.803Z,22.10
2022-08-09T00:40:52.425Z,22.30
2022-08-09T00:44:16.715Z,22.40
2022-08-09T00:46:11.325Z,22.30
2022-08-09T00:48:56.304Z,22.30
2022-08-09T00:51:25.005Z,22.20
2022-08-09T00:53:53.655Z,22.30
2022-08-09T00:56:20.814Z,22.30
2022-08-09T00:58:57.612Z,22.30
2022-08-09T01:01:44.325Z,22.20
2022-08-09T01:04:22.831Z,22.20
2022-08-09T01:07:16.231Z,22.20
2022-08-09T01:09:54.872Z,22.20
2022-08-09T01:12:31.283Z,22.10
2022-08-09T01:15:05.925Z,22.10
2022-08-09T01:17:52.336Z,22.10
2022-08-09T01:20:35.577Z,22.00
2022-08-09T01:24:02.044Z,22.00
2022-08-09T01:26:54.019Z,22.00
2022-08-09T01:29:41.014Z,22.00
2022-08-09T01:32:31.114Z,21.90
2022-08-09T01:35:06.977Z,22.00
2022-08-09T01:38:05.511Z,21.90
2022-08-09T01:40:28.369Z,21.90
2022-08-09T01:42:58.228Z,21.80
2022-08-09T01:45:28.251Z,21.80
2022-08-09T01:47:58.949Z,21.80
2022-08-09T01:50:36.681Z,21.80
2022-08-09T01:53:19.152Z,21.80
2022-08-09T01:55:49.795Z,21.70
2022-08-09T01:58:24.336Z,21.70
2022-08-09T02:00:53.746Z,21.60
2022-08-09T02:03:24.608Z,21.60
2022-08-09T02:06:06.459Z,21.50
2022-08-09T02:08:57.266Z,21.40
2022-08-09T02:11:41.940Z,21.50
2022-08-09T02:14:25.192Z,21.40
2022-08-09T02:16:59.580Z,21.40
2022-08-09T02:19:43.709Z,21.40
2022-08-09T02:22:19.116Z,21.40
2022-08-09T02:25:03.431Z,21.40
2022-08-09T02:27:57.397Z,21.30
2022-08-09T02:30:26.435Z,21.30
2022-08-09T02:32:55.208Z,21.30
2022-08-09T02:36:01.588Z,21.30
2022-08-09T02:38:27.877Z,21.30
2022-08-09T02:41:03.715Z,21.20
2022-08-09T02:43:53.697Z,21.20
2022-08-09T02:46:24.762Z,21.10
2022-08-09T02:48:54.001Z,21.10
2022-08-09T02:51:23.102Z,21.10
2022-08-09T02:54:00.679Z,21.10
2022-08-09T02:56:30.956Z,21.10
2022-08-09T02:58:59.961Z,21.10
2022-08-09T03:01:58.520Z,21.10
2022-08-09T03:04:19.850Z,21.10
2022-08-09T03:06:48.819Z,21.00
2022-08-09T03:09:17.645Z,21.00
2022-08-09T03:12:05.282Z,21.00
2022-08-09T03:14:34.400Z,20.90
2022-08-09T03:17:07.425Z,20.90
2022-08-09T03:19:59.416Z,20.90
2022-08-09T03:22:30.840Z,20.90
2022-08-09T03:25:05.735Z,20.90
2022-08-09T03:27:44.603Z,20.90
2022-08-09T03:30:14.156Z,20.90
2022-08-09T03:33:01.345Z,20.80
2022-08-09T03:36:11.540Z,20.80
2022-08-09T03:38:28.955Z,20.80
2022-08-09T03:40:58.060Z,20.80
2022-08-09T03:43:32.037Z,20.80
2022-08-09T03:46:05.177Z,20.80
2022-08-09T03:48:53.738Z,20.80
2022-08-09T03:51:57.745Z,20.70
2022-08-09T03:54:11.458Z,20.70
2022-08-09T03:56:41.147Z,20.60
2022-08-09T03:59:17.295Z,20.60
2022-08-09T04:01:56.379Z,20.60
2022-08-09T04:04:32.587Z,20.50
2022-08-09T04:07:04.827Z,20.60
2022-08-09T04:09:47.400Z,20.60
2022-08-09T04:12:44.630Z,20.60
2022-08-09T04:15:29.578Z,20.60
2022-08-09T04:18:00.241Z,20.50
2022-08-09T04:20:29.523Z,20.50
2022-08-09T04:23:00.019Z,20.50
2022-08-09T04:25:27.470Z,20.40
2022-08-09T04:28:02.657Z,20.40
2022-08-09T04:30:31.689Z,20.50
2022-08-09T04:33:02.337Z,20.40
2022-08-09T04:35:32.707Z,20.40
2022-08-09T04:38:03.688Z,20.40
2022-08-09T04:40:48.139Z,20.40
2022-08-09T04:43:21.411Z,20.40
2022-08-09T04:45:54.037Z,20.40
2022-08-09T04:48:23.809Z,20.40
2022-08-09T04:51:01.750Z,20.40
2022-08-09T04:53:28.891Z,20.40
2022-08-09T04:55:59.786Z,20.40
2022-08-09T04:58:27.989Z,20.40
2022-08-09T05:00:57.470Z,20.40
2022-08-09T05:03:40.277Z,20.30
2022-08-09T05:06:12.125Z,20.30
2022-08-09T05:09:00.019Z,20.30
2022-08-09T05:11:32.352Z,20.30
2022-08-09T05:14:05.744Z,20.30
2022-08-09T05:16:38.291Z,20.30
2022-08-09T05:19:24.302Z,20.30
2022-08-09T05:21:55.883Z,20.40
2022-08-09T05:24:24.121Z,20.40
2022-08-09T05:26:51.685Z,20.40
2022-08-09T05:29:23.956Z,20.40
2022-08-09T05:31:57.240Z,20.40
2022-08-09T05:34:30.013Z,20.50
2022-08-09T05:37:05.287Z,20.50
2022-08-09T05:39:42.714Z,20.50
2022-08-09T05:42:17.952Z,20.50
2022-08-09T05:44:51.523Z,20.50
2022-08-09T05:47:21.701Z,20.60
2022-08-09T05:50:31.069Z,20.60
2022-08-09T05:52:39.553Z,20.60
2022-08-09T05:55:08.749Z,20.70
2022-08-09T05:57:56.171Z,20.70
2022-08-09T06:00:24.304Z,20.80
2022-08-09T06:02:54.071Z,20.80
2022-08-09T06:05:50.511Z,20.80
2022-08-09T06:08:19.483Z,20.90
2022-08-09T06:10:52.775Z,20.90
2022-08-09T06:13:21.352Z,20.90
2022-08-09T06:15:51.321Z,20.90
2022-08-09T06:18:24.946Z,20.90
2022-08-09T06:20:54.514Z,20.90
2022-08-09T06:23:55.484Z,21.00
2022-08-09T06:26:14.937Z,21.10
2022-08-09T06:28:47.189Z,21.10
2022-08-09T06:31:14.265Z,21.20
2022-08-09T06:33:48.594Z,21.20
2022-08-09T06:36:16.367Z,21.20
2022-08-09T06:38:50.197Z,21.30
2022-08-09T06:41:20.481Z,21.40
2022-08-09T06:43:48.150Z,21.50
2022-08-09T06:46:40.236Z,21.50
2022-08-09T06:49:03.005Z,21.60
2022-08-09T06:51:30.820Z,21.60
2022-08-09T06:54:00.765Z,21.60
2022-08-09T06:56:30.917Z,21.70
2022-08-09T07:00:50.660Z,21.70
2022-08-09T07:01:54.451Z,21.80
2022-08-09T07:04:27.062Z,21.90
2022-08-09T07:06:59.805Z,22.00
2022-08-09T07:09:56.158Z,22.20
2022-08-09T07:12:17.966Z,22.30
2022-08-09T07:14:50.812Z,22.80
2022-08-09T07:17:19.147Z,23.20
2022-08-09T07:19:48.129Z,23.50
2022-08-09T07:22:18.596Z,23.50
2022-08-09T07:24:56.025Z,23.70
2022-08-09T07:27:34.207Z,23.90
2022-08-09T07:30:13.422Z,24.10
2022-08-09T07:32:42.362Z,24.10
2022-08-09T07:35:12.537Z,24.20
2022-08-09T07:37:45.877Z,24.20
2022-08-09T07:40:20.653Z,24.10
2022-08-09T07:42:56.287Z,24.10
2022-08-09T07:45:37.042Z,24.00
2022-08-09T07:48:25.583Z,24.00
2022-08-09T07:51:09.988Z,24.10
2022-08-09T07:54:05.290Z,24.10
2022-08-09T07:56:38.885Z,24.30
2022-08-09T07:59:25.694Z,24.30
2022-08-09T08:02:02.336Z,24.40
2022-08-09T08:04:31.630Z,24.60
2022-08-09T08:07:15.154Z,25.00
2022-08-09T08:10:04.617Z,25.30
2022-08-09T08:12:42.320Z,25.60
2022-08-09T08:15:11.338Z,25.70
2022-08-09T08:17:54.485Z,25.90
2022-08-09T08:20:28.506Z,26.00
2022-08-09T08:22:58.595Z,25.90
2022-08-09T08:25:44.442Z,25.80
2022-08-09T08:28:18.429Z,25.70
2022-08-09T08:30:56.163Z,25.60
2022-08-09T08:33:24.144Z,25.60
2022-08-09T08:35:59.252Z,25.60
2022-08-09T08:38:28.077Z,25.60
2022-08-09T08:40:56.987Z,25.60
2022-08-09T08:43:27.673Z,25.70
2022-08-09T08:46:24.837Z,25.70
2022-08-09T08:48:54.213Z,25.70
2022-08-09T08:51:24.100Z,25.80
2022-08-09T08:54:03.926Z,25.90
2022-08-09T08:56:35.399Z,25.90
2022-08-09T08:59:07.785Z,25.90
2022-08-09T09:01:53.401Z,25.80
2022-08-09T09:04:47.908Z,25.80
2022-08-09T09:07:30.943Z,25.80
2022-08-09T09:10:09.363Z,25.90
2022-08-09T09:12:39.700Z,25.80
2022-08-09T09:15:09.627Z,25.80
2022-08-09T09:17:48.946Z,25.80
2022-08-09T09:20:22.474Z,25.90
2022-08-09T09:22:55.514Z,25.80
2022-08-09T09:26:03.185Z,25.90
2022-08-09T09:29:02.497Z,26.00
2022-08-09T09:32:05.887Z,26.00
2022-08-09T09:34:14.531Z,26.00
2022-08-09T09:36:49.644Z,26.00
2022-08-09T09:39:23.435Z,26.20
2022-08-09T09:41:54.251Z,26.20
2022-08-09T09:44:27.795Z,26.20
2022-08-09T09:47:09.775Z,26.30
2022-08-09T09:50:06.757Z,26.40
2022-08-09T09:52:36.927Z,26.40
2022-08-09T09:55:28.307Z,26.40
2022-08-09T09:58:16.211Z,26.60
2022-08-09T10:00:55.330Z,26.60
2022-08-09T10:03:58.010Z,26.60
2022-08-09T10:06:32.119Z,26.60
2022-08-09T10:09:11.813Z,26.80
2022-08-09T10:12:14.436Z,26.80
2022-08-09T10:14:48.484Z,26.90
2022-08-09T10:17:50.376Z,27.00
2022-08-09T10:20:35.746Z,27.10
2022-08-09T10:23:20.354Z,27.30
2022-08-09T10:26:06.034Z,27.20
2022-08-09T10:28:41.167Z,27.20
2022-08-09T10:34:09.544Z,27.40
2022-08-09T10:36:54.425Z,27.30
2022-08-09T10:39:28.872Z,27.40
2022-08-09T10:41:56.278Z,27.40
2022-08-09T10:44:26.505Z,27.30
2022-08-09T10:48:16.388Z,27.40
2022-08-09T10:50:31.289Z,27.40
2022-08-09T10:53:38.078Z,27.30
2022-08-09T10:56:33.607Z,27.40
2022-08-09T10:59:31.313Z,27.50
2022-08-09T11:03:11.410Z,27.50
2022-08-09T11:05:25.106Z,27.60
2022-08-09T11:08:47.025Z,27.60
2022-08-09T11:11:18.451Z,27.70
2022-08-09T11:14:32.306Z,27.70
2022-08-09T11:16:59.474Z,27.70
2022-08-09T11:20:11.506Z,27.70
2022-08-09T11:23:00.638Z,27.80
2022-08-09T11:25:48.443Z,27.70
2022-08-09T11:28:38.839Z,27.80
2022-08-09T11:31:50.437Z,27.80
2022-08-09T11:34:39.863Z,27.80
2022-08-09T11:37:09.031Z,27.90
2022-08-09T11:40:03.971Z,27.90
2022-08-09T11:42:50.293Z,27.80
2022-08-09T11:45:26.388Z,27.80
2022-08-09T11:48:24.929Z,27.80
2022-08-09T11:52:53.791Z,27.90
2022-08-09T11:54:27.554Z,28.00
2022-08-09T11:57:59.744Z,27.90
2022-08-09T12:00:32.974Z,27.90
2022-08-09T12:03:50.213Z,28.00
2022-08-09T12:05:51.049Z,27.90
2022-08-09T12:08:22.285Z,27.90
2022-08-09T12:10:54.852Z,28.00
2022-08-09T12:14:07.778Z,28.00
2022-08-09T12:16:37.195Z,28.10
2022-08-09T12:19:08.557Z,28.10
2022-08-09T12:24:32.174Z,28.30
2022-08-09T12:28:58.338Z,28.30
2022-08-09T12:30:02.065Z,28.20
2022-08-09T12:32:45.294Z,28.20
2022-08-09T12:35:19.352Z,28.20
2022-08-09T12:37:51.533Z,28.20
2022-08-09T12:40:23.255Z,28.30
2022-08-09T12:42:52.501Z,28.30
2022-08-09T12:45:33.484Z,28.20
2022-08-09T12:48:20.550Z,28.20
2022-08-09T12:50:57.603Z,28.20
2022-08-09T12:53:38.174Z,28.30
2022-08-09T12:56:43.522Z,28.20
2022-08-09T12:59:11.749Z,28.30
2022-08-09T13:01:46.948Z,28.30
2022-08-09T13:04:35.849Z,28.40
2022-08-09T13:07:13.440Z,28.40
2022-08-09T13:09:55.962Z,28.40
2022-08-09T13:12:29.173Z,28.40
2022-08-09T13:15:07.886Z,28.50
2022-08-09T13:18:03.642Z,28.40
2022-08-09T13:20:37.421Z,28.40
2022-08-09T13:24:17.125Z,28.50
2022-08-09T13:26:46.082Z,28.50
2022-08-09T13:29:20.505Z,28.50
2022-08-09T13:32:14.374Z,28.50
2022-08-09T13:34:46.174Z,28.60
2022-08-09T13:37:24.497Z,28.70
2022-08-09T13:41:51.232Z,28.70
2022-08-09T13:42:55.588Z,28.70
2022-08-09T13:45:31.923Z,28.80
2022-08-09T13:47:59.963Z,28.80
2022-08-09T13:50:30.512Z,28.90
2022-08-09T13:53:00.574Z,28.90
2022-08-09T13:55:28.930Z,28.80
2022-08-09T13:57:59.350Z,28.80
2022-08-09T14:00:48.276Z,28.70
2022-08-09T14:04:03.654Z,28.70
2022-08-09T14:06:14.784Z,28.80
2022-08-09T14:08:51.600Z,28.90
2022-08-09T14:11:21.942Z,28.90
2022-08-09T14:14:23.074Z,28.90
2022-08-09T14:16:40.568Z,28.90
2022-08-09T14:19:10.646Z,29.00
2022-08-09T14:21:38.226Z,29.00
2022-08-09T14:24:21.877Z,29.10
2022-08-09T14:27:00.267Z,29.10
2022-08-09T14:30:35.928Z,29.10
2022-08-09T14:32:16.365Z,29.20
2022-08-09T14:34:47.167Z,29.20
2022-08-09T14:37:41.122Z,29.20
2022-08-09T14:41:00.574Z,29.20
2022-08-09T14:43:18.646Z,29.10
2022-08-09T14:46:57.964Z,29.00
2022-08-09T14:48:36.812Z,28.90
2022-08-09T14:51:05.509Z,28.90
2022-08-09T14:53:46.793Z,28.80
2022-08-09T14:56:21.644Z,28.80
2022-08-09T14:58:51.816Z,28.70
2022-08-09T15:01:26.313Z,28.70
2022-08-09T15:04:05.589Z,28.70
2022-08-09T15:06:36.890Z,28.70
2022-08-09T15:09:04.288Z,28.70
2022-08-09T15:11:33.555Z,28.70
2022-08-09T15:14:13.514Z,28.70
2022-08-09T15:16:40.865Z,28.70
2022-08-09T15:19:18.264Z,28.70
2022-08-09T15:21:57.232Z,28.80
2022-08-09T15:24:28.446Z,28.90
2022-08-09T15:26:57.815Z,28.90
2022-08-09T15:30:56.076Z,28.90
2022-08-09T15:32:29.944Z,28.90
2022-08-09T15:35:01.435Z,28.90
2022-08-09T15:37:37.260Z,28.80
2022-08-09T15:40:25.245Z,28.90
2022-08-09T15:43:01.840Z,28.90
2022-08-09T15:45:30.271Z,28.80
2022-08-09T15:48:05.577Z,28.80
2022-08-09T15:50:43.693Z,28.80
2022-08-09T15:53:18.913Z,28.80
2022-08-09T15:56:21.479Z,28.80
2022-08-09T15:58:53.651Z,28.70
2022-08-09T16:01:24.815Z,28.80
2022-08-09T16:03:55.855Z,28.70
2022-08-09T16:06:35.602Z,28.80
2022-08-09T16:09:05.589Z,28.80
2022-08-09T16:11:39.388Z,28.80
2022-08-09T16:14:09.583Z,28.80
2022-08-09T16:16:41.918Z,28.90
2022-08-09T16:19:13.952Z,28.90
2022-08-09T16:21:43.064Z,28.90
2022-08-09T16:24:29.732Z,28.90
2022-08-09T16:27:00.433Z,28.90
2022-08-09T16:29:37.298Z,28.80
2022-08-09T16:32:19.085Z,28.80
2022-08-09T16:34:59.603Z,28.70
2022-08-09T16:37:53.366Z,28.70
2022-08-09T16:40:39.869Z,28.60
2022-08-09T16:43:10.637Z,28.60
2022-08-09T16:45:43.887Z,28.50
2022-08-09T16:48:40.064Z,28.50
2022-08-09T16:51:07.503Z,28.60
2022-08-09T16:53:56.259Z,28.60
2022-08-09T16:56:30.794Z,28.70
2022-08-09T16:59:01.140Z,28.70
2022-08-09T17:01:35.727Z,28.70
2022-08-09T17:04:06.772Z,28.70
2022-08-09T17:06:47.349Z,28.70
2022-08-09T17:09:43.841Z,28.80
2022-08-09T17:12:09.175Z,28.70
2022-08-09T17:14:36.531Z,28.60
2022-08-09T17:17:23.360Z,28.60
2022-08-09T17:20:28.415Z,28.60
2022-08-09T17:22:51.812Z,28.60
2022-08-09T17:25:21.955Z,28.50
2022-08-09T17:27:54.519Z,28.50
2022-08-09T17:30:28.792Z,28.50
2022-08-09T17:33:04.969Z,28.50
2022-08-09T17:35:35.354Z,28.50
2022-08-09T17:38:13.777Z,28.50
2022-08-09T17:40:51.696Z,28.50
2022-08-09T17:43:34.775Z,28.50
2022-08-09T17:46:06.251Z,28.40
2022-08-09T17:48:39.560Z,28.40
2022-08-09T17:51:19.114Z,28.40
2022-08-09T17:53:55.001Z,28.40
2022-08-09T17:56:28.788Z,28.40
2022-08-09T17:58:58.377Z,28.30
2022-08-09T18:02:03.538Z,28.30
2022-08-09T18:04:17.112Z,28.30
2022-08-09T18:06:53.997Z,28.20
2022-08-09T18:09:23.192Z,28.20
2022-08-09T18:12:05.783Z,28.20
2022-08-09T18:14:53.574Z,28.10
2022-08-09T18:18:01.996Z,28.10
2022-08-09T18:20:54.656Z,28.10
2022-08-09T18:23:07.449Z,28.10
2022-08-09T18:25:51.181Z,28.00
2022-08-09T18:30:42.771Z,28.00
2022-08-09T18:31:25.136Z,27.90
2022-08-09T18:34:04.182Z,27.90
2022-08-09T18:36:33.222Z,27.90
2022-08-09T18:39:05.947Z,27.80
2022-08-09T18:41:37.022Z,27.80
2022-08-09T18:44:12.848Z,27.70
2022-08-09T18:46:49.336Z,27.70
2022-08-09T18:49:32.267Z,27.60
2022-08-09T18:52:11.729Z,27.50
2022-08-09T18:54:45.822Z,27.50
2022-08-09T18:57:22.270Z,27.50
2022-08-09T18:59:57.399Z,27.40
2022-08-09T19:02:31.688Z,27.40
2022-08-09T19:05:03.406Z,27.30
2022-08-09T19:07:59.410Z,27.30
2022-08-09T19:10:37.326Z,27.30
2022-08-09T19:13:21.939Z,27.20
2022-08-09T19:15:51.470Z,27.10
2022-08-09T19:18:33.291Z,27.10
2022-08-09T19:21:05.496Z,27.00
2022-08-09T19:24:31.529Z,27.00
2022-08-09T19:26:32.170Z,27.00
2022-08-09T19:29:03.240Z,26.90
2022-08-09T19:31:45.153Z,26.90
2022-08-09T19:34:21.839Z,26.90
2022-08-09T19:36:51.629Z,26.90
2022-08-09T19:39:43.493Z,26.80
2022-08-09T19:42:19.685Z,26.80
2022-08-09T19:44:50.684Z,26.70
2022-08-09T19:47:23.590Z,26.60
2022-08-09T19:50:10.485Z,26.60
2022-08-09T19:52:49.709Z,26.60
2022-08-09T19:55:25.603Z,26.50
2022-08-09T19:57:58.053Z,26.50
2022-08-09T20:00:25.243Z,26.50
2022-08-09T20:04:12.329Z,26.50
2022-08-09T20:05:45.995Z,26.50
2022-08-09T20:08:16.175Z,26.50
2022-08-09T20:10:53.814Z,26.40
2022-08-09T20:13:21.167Z,26.40
2022-08-09T20:16:35.699Z,26.30
2022-08-09T20:18:36.175Z,26.30
2022-08-09T20:21:04.060Z,26.30
2022-08-09T20:23:39.106Z,26.30
2022-08-09T20:26:10.050Z,26.30
2022-08-09T20:28:48.773Z,26.30
2022-08-09T20:31:17.242Z,26.20
2022-08-09T20:33:44.715Z,26.20
2022-08-09T20:36:12.345Z,26.10
2022-08-09T20:41:35.601Z,26.20
2022-08-09T20:44:09.989Z,26.10
2022-08-09T20:46:42.769Z,26.10
2022-08-09T20:49:12.265Z,26.10
2022-08-09T20:51:40.907Z,26.00
2022-08-09T20:54:10.569Z,26.00
2022-08-09T20:56:41.519Z,26.00
2022-08-09T20:59:08.520Z,26.00
2022-08-09T21:01:50.533Z,26.00
2022-08-09T21:05:57.233Z,26.00
2022-08-09T21:07:11.467Z,25.90
2022-08-09T21:09:45.655Z,25.90
2022-08-09T21:15:13.573Z,25.80
2022-08-09T21:18:11.378Z,25.70
2022-08-09T21:20:30.114Z,25.80
2022-08-09T21:22:57.982Z,25.70
2022-08-09T21:26:05.406Z,25.80
2022-08-09T21:28:36.270Z,25.70
2022-08-09T21:31:13.520Z,25.70
2022-08-09T21:33:49.417Z,25.70
2022-08-09T21:36:23.728Z,25.60
2022-08-09T21:38:59.846Z,25.60
2022-08-09T21:42:03.895Z,25.60
2022-08-09T21:44:33.784Z,25.60
2022-08-09T21:47:03.962Z,25.50
2022-08-09T21:49:40.400Z,25.50
2022-08-09T21:52:14.650Z,25.50
2022-08-09T21:54:50.875Z,25.40
2022-08-09T21:57:38.894Z,25.40
2022-08-09T22:00:25.749Z,25.40
2022-08-09T22:02:59.235Z,25.40
2022-08-09T22:05:35.487Z,25.40
2022-08-09T22:08:07.038Z,25.40
2022-08-09T22:11:50.291Z,25.40
2022-08-09T22:13:33.897Z,25.40
2022-08-09T22:16:07.161Z,25.40
2022-08-09T22:18:37.240Z,25.30
2022-08-09T22:21:09.851Z,25.30
2022-08-09T22:23:59.483Z,25.30
2022-08-09T22:26:35.603Z,25.30
2022-08-09T22:29:07.717Z,25.30
2022-08-09T22:31:50.561Z,25.30
2022-08-09T22:34:25.858Z,25.20
2022-08-09T22:36:53.636Z,25.20
2022-08-09T22:39:57.709Z,25.20
2022-08-09T22:42:16.202Z,25.20
2022-08-09T22:48:05.767Z,25.10
2022-08-09T22:48:11.730Z,25.10
2022-08-09T22:50:26.931Z,25.10
2022-08-09T22:52:57.886Z,25.10
2022-08-09T22:55:33.768Z,25.10
2022-08-09T22:58:20.427Z,25.10
2022-08-09T23:01:05.693Z,25.10
2022-08-09T23:04:04.301Z,25.10
2022-08-09T23:06:35.118Z,25.00
2022-08-09T23:09:05.893Z,24.90
2022-08-09T23:11:33.509Z,24.90
2022-08-09T23:14:00.728Z,24.90
2022-08-09T23:16:27.857Z,24.90
2022-08-09T23:18:56.357Z,24.90
2022-08-09T23:21:24.542Z,24.90
2022-08-09T23:24:01.630Z,24.90
2022-08-09T23:26:37.280Z,24.90
2022-08-09T23:29:05.323Z,24.80
2022-08-09T23:31:32.509Z,24.80
2022-08-09T23:34:02.541Z,24.80
2022-08-09T23:36:31.505Z,24.80
2022-08-09T23:38:58.660Z,24.70
2022-08-09T23:41:29.838Z,24.70
2022-08-09T23:43:59.015Z,24.70
2022-08-09T23:46:26.678Z,24.70
2022-08-09T23:48:57.290Z,24.70
2022-08-09T23:51:26.400Z,24.60
2022-08-09T23:53:55.296Z,24.60
2022-08-09T23:56:53.147Z,24.60
2022-08-09T23:59:16.816Z,24.60
